Prichard, West Virginia
Current Conditions -  °F | °C
As of 9:51 PM on Monday 20 Oct 2014 (Local Time) from KHTS Reporting Station
Clear Clear  
Wind Chill: 52°   Ceiling: Unl
Heat Index: 52°   Visibility: 10mi
Dew Point: 48°   Wind: 6mph
Humidity: 86%   Direction: 190°S
Pressure: 29.93"   Gusts: NA
Location:  38.24°N, 82.6°W
Report Text: KHTS 210151Z 19005KT 10SM CLR 11/09 A2993 RMK AO2 SLP134 T01110089
Loading
Personal Weather Stations






























Interactive Weather Map
Tropical Storm Tracking
New forecast layout! Learn more

10-Day Weather Forecast

Advertisements
Track Severe Weather on mobile